Terminal Aerodrome Forecast
Issued by NWS Wilmington, NC

Home | Current Version | Previous Version | Text Only | Print | Product List | Glossary On
Versions: 1 2 3 4 5 6 7 8 9 10 11 12 13
702
FTUS42 KILM 191726 AAA
TAFLBT
TAF AMD
KLBT 191726Z 1917/2018 36006KT P6SM SCT250
     FM192200 VRB02KT P6SM SKC
      TEMPO 2010/2012 3SM BR
     FM201400 36005KT P6SM SKC=

USA.gov is the U.S. government's official web portal to all federal, state and local government web resources and services.